Time;durP1;ratioP1;P1;durP2;ratioP2;P2;SDS_P1;SDS_P2;PMS_P1;PMS_P2;Temp;Humidity;BMP_temperature;BMP_pressure;BME280_temperature;BME280_humidity;BME280_pressure;Samples;Min_cycle;Max_cycle;Signal;HPM_P1;HPM_P2
2022/10/14 00:01:37;;;;;;;8.60;6.80;;;15.00;99.90;;;;;;5008593;28;20203;-78
2022/10/14 00:04:04;;;;;;;8.57;7.77;;;15.00;99.90;;;;;;5006427;28;20190;-81
2022/10/14 00:06:31;;;;;;;10.40;7.53;;;14.80;99.90;;;;;;5007613;28;20195;-80
2022/10/14 00:09:07;;;;;;;8.35;7.43;;;14.70;99.90;;;;;;5008496;28;20210;-80
2022/10/14 00:11:35;;;;;;;9.82;7.13;;;15.00;99.90;;;;;;5005893;28;20281;-80
2022/10/14 00:14:14;;;;;;;7.88;7.07;;;14.80;99.90;;;;;;5009720;28;20217;-79
2022/10/14 00:16:41;;;;;;;8.57;7.78;;;14.70;99.90;;;;;;5008901;28;20202;-80
2022/10/14 00:19:07;;;;;;;8.75;7.95;;;14.40;99.90;;;;;;5008945;28;20198;-80
2022/10/14 00:21:35;;;;;;;10.67;8.40;;;14.40;99.90;;;;;;5009055;28;20716;-80
2022/10/14 00:24:01;;;;;;;10.38;8.10;;;14.50;99.90;;;;;;5005923;28;20445;-80
2022/10/14 00:26:30;;;;;;;8.93;7.83;;;14.90;99.90;;;;;;5008341;28;20191;-79
2022/10/14 00:28:56;;;;;;;8.55;7.70;;;14.60;99.90;;;;;;5011974;28;20603;-80
2022/10/14 00:31:22;;;;;;;8.02;7.00;;;14.60;99.90;;;;;;5009779;28;20234;-80
2022/10/14 00:33:48;;;;;;;8.10;7.30;;;15.10;99.90;;;;;;5007920;28;20187;-80
2022/10/14 00:36:16;;;;;;;8.40;7.27;;;15.00;99.90;;;;;;5008736;28;20445;-80
2022/10/14 00:38:42;;;;;;;7.97;7.25;;;14.60;99.90;;;;;;5009723;28;20503;-80
2022/10/14 00:41:13;;;;;;;9.23;7.50;;;14.90;99.90;;;;;;5007961;28;20207;-80
2022/10/14 00:44:01;;;;;;;10.68;7.75;;;14.50;99.90;;;;;;5006912;28;20962;-80
2022/10/14 00:46:47;;;;;;;8.63;6.40;;;14.60;99.90;;;;;;5017574;28;20249;-80
2022/10/14 00:49:32;;;;;;;9.50;7.80;;;14.70;99.90;;;;;;5012528;28;20218;-80
2022/10/14 00:52:02;;;;;;;8.38;7.65;;;14.60;99.90;;;;;;5011826;28;20229;-80
2022/10/14 00:54:34;;;;;;;8.43;7.53;;;14.60;99.90;;;;;;5011764;28;20193;-80
2022/10/14 00:57:00;;;;;;;9.18;7.78;;;14.50;99.90;;;;;;5008078;28;20183;-81
2022/10/14 00:59:26;;;;;;;8.30;7.50;;;14.90;99.90;;;;;;5012623;28;20194;-80
2022/10/14 01:01:51;;;;;;;8.17;7.37;;;14.10;99.90;;;;;;5011695;28;20214;-80
2022/10/14 01:04:17;;;;;;;8.23;7.40;;;15.00;99.90;;;;;;5011334;28;20720;-81
2022/10/14 01:06:45;;;;;;;13.67;7.20;;;14.70;99.90;;;;;;5011945;28;20671;-80
2022/10/14 01:09:27;;;;;;;8.43;7.53;;;14.60;99.90;;;;;;5012779;28;20530;-80
2022/10/14 01:11:59;;;;;;;8.88;6.82;;;14.60;99.90;;;;;;5002047;28;20206;-80
2022/10/14 01:14:40;;;;;;;10.70;7.93;;;14.70;99.90;;;;;;5011841;28;20628;-80
2022/10/14 01:17:17;;;;;;;12.02;9.00;;;14.00;99.90;;;;;;5003434;28;20175;-80
2022/10/14 01:20:18;;;;;;;11.10;7.45;;;14.60;99.90;;;;;;5010769;28;20183;-81
2022/10/14 01:22:52;;;;;;;9.00;7.25;;;14.60;99.90;;;;;;5012058;28;20299;-80
2022/10/14 01:25:33;;;;;;;8.55;7.70;;;14.60;99.90;;;;;;5012352;28;20639;-79
2022/10/14 01:28:25;;;;;;;8.07;6.70;;;14.50;99.90;;;;;;5004833;28;20187;-79
2022/10/14 01:31:00;;;;;;;8.15;7.40;;;14.50;99.90;;;;;;5012114;28;20288;-79
2022/10/14 01:33:32;;;;;;;7.32;6.55;;;14.30;99.90;;;;;;5011059;28;20182;-80
2022/10/14 01:36:16;;;;;;;8.95;7.43;;;14.50;99.90;;;;;;5012791;28;20179;-80
2022/10/14 01:38:48;;;;;;;15.07;7.03;;;14.30;99.90;;;;;;5012492;28;20182;-80
2022/10/14 01:41:18;;;;;;;7.15;6.55;;;14.70;99.90;;;;;;5012074;28;20560;-81
2022/10/14 01:43:47;;;;;;;8.10;7.32;;;14.90;99.90;;;;;;5010018;28;20617;-80
2022/10/14 01:46:13;;;;;;;9.48;7.18;;;14.80;99.90;;;;;;5010724;28;20182;-80
2022/10/14 01:48:46;;;;;;;9.65;8.40;;;14.60;99.90;;;;;;5009943;28;20183;-80
2022/10/14 01:51:18;;;;;;;7.57;6.85;;;14.80;99.90;;;;;;5011781;28;20210;-80
2022/10/14 01:53:53;;;;;;;9.23;6.90;;;14.70;99.90;;;;;;5007487;28;20684;-80
2022/10/14 01:56:18;;;;;;;9.82;7.25;;;14.90;99.90;;;;;;5010914;28;20190;-80
2022/10/14 01:58:45;;;;;;;7.50;6.80;;;15.00;99.90;;;;;;5006265;28;20195;-80
2022/10/14 02:01:11;;;;;;;7.70;7.00;;;14.60;99.90;;;;;;5007777;28;20333;-81
2022/10/14 02:03:41;;;;;;;7.67;6.87;;;14.50;99.90;;;;;;5011676;28;20278;-79
2022/10/14 02:06:13;;;;;;;8.90;7.50;;;14.70;99.90;;;;;;5011594;28;20187;-80
2022/10/14 02:09:09;;;;;;;8.95;7.75;;;14.60;99.90;;;;;;5011920;28;20220;-79
2022/10/14 02:11:55;;;;;;;11.85;8.40;;;14.60;99.90;;;;;;5013767;28;20253;-79
2022/10/14 02:14:49;;;;;;;8.88;7.95;;;14.70;99.90;;;;;;5010555;28;20241;-79
2022/10/14 02:17:32;;;;;;;7.85;7.15;;;14.20;99.90;;;;;;5005151;28;20187;-79
2022/10/14 02:20:18;;;;;;;9.45;7.40;;;14.10;99.90;;;;;;5009228;28;20187;-79
2022/10/14 02:22:56;;;;;;;10.90;7.63;;;14.60;99.90;;;;;;5007232;28;20206;-79
2022/10/14 02:25:33;;;;;;;9.65;7.13;;;14.30;99.90;;;;;;5007272;28;20183;-79
2022/10/14 02:28:01;;;;;;;7.72;7.03;;;14.20;99.90;;;;;;5011211;28;20190;-79
2022/10/14 02:30:31;;;;;;;9.88;7.55;;;14.40;99.90;;;;;;5010182;28;20211;-79
2022/10/14 02:32:59;;;;;;;8.27;7.57;;;14.40;99.90;;;;;;5011698;28;20191;-79
2022/10/14 02:35:26;;;;;;;8.18;7.30;;;14.60;99.90;;;;;;5011870;28;20179;-79
2022/10/14 02:37:52;;;;;;;8.57;7.75;;;14.60;99.90;;;;;;5010678;28;20197;-79
2022/10/14 02:40:26;;;;;;;7.75;7.05;;;14.80;99.90;;;;;;5011604;28;20222;-79
2022/10/14 02:42:51;;;;;;;8.98;7.30;;;14.70;99.90;;;;;;5010999;28;20191;-78
2022/10/14 02:45:18;;;;;;;9.50;8.07;;;14.70;99.90;;;;;;5016097;28;20242;-79
2022/10/14 02:47:43;;;;;;;11.18;8.63;;;14.00;99.90;;;;;;5010586;28;20245;-79
2022/10/14 02:50:09;;;;;;;10.07;8.93;;;14.20;99.90;;;;;;5006259;28;20589;-79
2022/10/14 02:52:35;;;;;;;9.40;8.40;;;14.40;99.90;;;;;;5010134;28;20214;-79
2022/10/14 02:55:01;;;;;;;10.07;8.87;;;14.40;99.90;;;;;;4996317;28;20266;-80
2022/10/14 02:57:26;;;;;;;9.40;8.50;;;13.90;99.90;;;;;;5009404;28;20179;-80
2022/10/14 02:59:52;;;;;;;9.00;7.77;;;14.70;99.90;;;;;;5014331;28;20190;-80
2022/10/14 03:02:17;;;;;;;9.30;8.40;;;14.50;99.90;;;;;;5019746;28;20202;-80
2022/10/14 03:04:43;;;;;;;11.70;8.87;;;15.00;99.90;;;;;;5022339;28;20284;-79
2022/10/14 03:07:08;;;;;;;9.60;8.70;;;14.40;99.90;;;;;;5009412;28;20201;-79
2022/10/14 03:09:34;;;;;;;10.27;8.43;;;14.00;99.90;;;;;;5013841;28;20679;-80
2022/10/14 03:11:59;;;;;;;9.97;8.97;;;14.20;99.90;;;;;;5009616;28;20544;-79
2022/10/14 03:14:25;;;;;;;10.37;9.27;;;14.30;99.90;;;;;;5012846;28;20213;-79
2022/10/14 03:16:51;;;;;;;12.00;9.70;;;14.40;99.90;;;;;;5009798;28;20183;-79
2022/10/14 03:19:16;;;;;;;11.80;8.90;;;14.60;99.90;;;;;;5009541;28;20195;-80
2022/10/14 03:21:42;;;;;;;11.53;9.20;;;14.30;99.90;;;;;;5011047;28;20913;-79
2022/10/14 03:24:08;;;;;;;12.00;9.07;;;14.80;99.90;;;;;;5006043;28;20183;-79
2022/10/14 03:26:34;;;;;;;12.20;10.40;;;14.10;99.90;;;;;;5009057;28;20275;-79
2022/10/14 03:28:59;;;;;;;10.53;9.43;;;14.20;99.90;;;;;;5008544;28;20313;-79
2022/10/14 03:31:25;;;;;;;10.20;9.13;;;14.30;99.90;;;;;;5009338;28;20932;-79
2022/10/14 03:33:50;;;;;;;10.53;8.73;;;14.10;99.90;;;;;;5008782;28;20253;-80
2022/10/14 03:36:16;;;;;;;10.63;9.17;;;14.30;99.90;;;;;;5008360;28;20190;-79
2022/10/14 03:38:42;;;;;;;9.70;8.20;;;14.40;99.90;;;;;;5009271;28;20183;-79
2022/10/14 03:41:07;;;;;;;10.33;9.23;;;14.30;99.90;;;;;;5009592;28;20207;-80
2022/10/14 03:43:33;;;;;;;9.70;8.70;;;14.30;99.90;;;;;;5003791;28;20186;-79
2022/10/14 03:45:58;;;;;;;10.10;9.10;;;14.30;99.90;;;;;;5007252;28;20236;-79
2022/10/14 03:48:24;;;;;;;9.87;8.93;;;14.30;99.90;;;;;;5001874;28;20198;-78
2022/10/14 03:50:49;;;;;;;9.37;8.17;;;14.60;99.90;;;;;;5009259;28;20215;-78
2022/10/14 03:53:15;;;;;;;9.57;8.57;;;14.20;99.90;;;;;;5012926;28;20198;-79
2022/10/14 03:55:40;;;;;;;15.67;8.67;;;14.40;99.90;;;;;;4998950;28;20183;-79
2022/10/14 03:58:07;;;;;;;12.07;8.30;;;14.30;99.90;;;;;;5004578;28;20215;-79
2022/10/14 04:00:34;;;;;;;11.75;8.45;;;14.70;99.90;;;;;;5004095;28;20280;-78
2022/10/14 04:03:00;;;;;;;12.48;7.82;;;14.20;99.90;;;;;;5007538;28;20186;-79
2022/10/14 04:05:28;;;;;;;9.40;8.37;;;14.20;99.90;;;;;;5007980;28;20185;-79
2022/10/14 04:07:53;;;;;;;9.48;8.00;;;14.50;99.90;;;;;;5009428;28;20183;-79
2022/10/14 04:10:19;;;;;;;8.20;7.40;;;14.30;99.90;;;;;;5010121;28;20235;-79
2022/10/14 04:12:44;;;;;;;8.67;7.80;;;14.60;99.90;;;;;;5008966;28;20187;-79
2022/10/14 04:15:10;;;;;;;10.90;9.80;;;14.50;99.90;;;;;;5005313;28;20183;-79
2022/10/14 04:17:35;;;;;;;9.03;8.13;;;14.50;99.90;;;;;;5009073;28;20174;-79
2022/10/14 04:20:01;;;;;;;14.43;8.17;;;14.80;99.90;;;;;;5009087;28;20269;-79
2022/10/14 04:22:28;;;;;;;11.10;8.30;;;14.50;99.90;;;;;;5010895;28;20220;-79
2022/10/14 04:24:54;;;;;;;9.43;8.48;;;14.80;99.90;;;;;;5012075;28;20190;-79
2022/10/14 04:27:19;;;;;;;10.10;7.60;;;14.10;99.90;;;;;;5012963;28;20186;-79
2022/10/14 04:29:45;;;;;;;8.53;7.63;;;14.50;99.90;;;;;;5013895;28;20202;-79
2022/10/14 04:32:11;;;;;;;8.70;7.80;;;14.40;99.90;;;;;;5012310;28;20241;-80
2022/10/14 04:34:36;;;;;;;9.50;8.27;;;14.00;99.90;;;;;;5012315;28;20179;-79
2022/10/14 04:37:02;;;;;;;9.93;8.93;;;14.60;99.90;;;;;;5011554;28;20265;-79
2022/10/14 04:39:27;;;;;;;10.83;9.53;;;14.50;99.90;;;;;;5006503;28;20548;-80
2022/10/14 04:41:53;;;;;;;9.87;8.87;;;14.10;99.90;;;;;;5008610;28;20210;-79
2022/10/14 04:44:18;;;;;;;10.40;9.20;;;14.20;99.90;;;;;;5010915;28;20190;-79
2022/10/14 04:46:44;;;;;;;13.40;9.60;;;14.20;99.90;;;;;;5009065;28;20186;-79
2022/10/14 04:49:11;;;;;;;12.47;8.50;;;14.20;99.90;;;;;;5000029;28;20201;-80
2022/10/14 04:51:37;;;;;;;9.95;8.93;;;14.20;99.90;;;;;;5009187;28;20205;-81
2022/10/14 04:54:02;;;;;;;15.13;9.43;;;14.90;99.90;;;;;;5000693;28;20277;-80
2022/10/14 04:56:28;;;;;;;9.97;9.07;;;14.10;99.90;;;;;;5005606;28;20734;-79
2022/10/14 04:58:53;;;;;;;10.43;8.80;;;14.60;99.90;;;;;;5005782;28;20442;-79
2022/10/14 05:01:19;;;;;;;10.63;9.30;;;13.80;99.90;;;;;;5020458;28;20218;-79
2022/10/14 05:03:45;;;;;;;12.57;8.80;;;14.50;99.90;;;;;;5001951;28;20191;-80
2022/10/14 05:06:10;;;;;;;12.90;9.60;;;14.30;99.90;;;;;;5019579;28;20190;-80
2022/10/14 05:08:36;;;;;;;10.10;9.07;;;14.10;99.90;;;;;;5008148;28;20202;-79
2022/10/14 05:11:02;;;;;;;10.87;9.87;;;14.70;99.90;;;;;;5029040;28;20207;-79
2022/10/14 05:13:28;;;;;;;13.83;10.50;;;14.00;99.90;;;;;;5008031;28;20190;-79
2022/10/14 05:15:54;;;;;;;12.27;9.65;;;14.00;99.90;;;;;;5009501;28;20449;-80
2022/10/14 05:18:19;;;;;;;14.60;11.00;;;14.60;99.90;;;;;;5005214;28;20199;-79
2022/10/14 05:20:45;;;;;;;10.17;9.10;;;14.60;99.90;;;;;;5012974;28;20210;-79
2022/10/14 05:23:10;;;;;;;10.83;9.73;;;14.50;99.90;;;;;;5006969;28;20192;-80
2022/10/14 05:25:36;;;;;;;11.40;10.17;;;14.40;99.90;;;;;;5009543;28;20213;-80
2022/10/14 05:28:02;;;;;;;11.17;9.97;;;14.20;99.90;;;;;;5000034;28;20683;-80
2022/10/14 05:30:27;;;;;;;11.90;10.60;;;14.50;99.90;;;;;;5010926;28;20233;-80
2022/10/14 05:32:53;;;;;;;12.43;10.87;;;14.70;99.90;;;;;;5010121;28;20674;-81
2022/10/14 05:35:18;;;;;;;11.60;10.40;;;14.50;99.90;;;;;;5016777;28;20187;-80
2022/10/14 05:37:44;;;;;;;11.53;10.43;;;14.70;99.90;;;;;;5009291;28;20214;-81
2022/10/14 05:40:12;;;;;;;11.23;9.10;;;14.90;99.90;;;;;;5011796;28;20218;-81
2022/10/14 05:42:38;;;;;;;12.18;9.32;;;15.20;99.90;;;;;;5011006;28;20449;-80
2022/10/14 05:45:04;;;;;;;11.13;9.90;;;14.70;99.90;;;;;;5011920;28;20647;-79
2022/10/14 05:47:30;;;;;;;11.05;9.50;;;14.80;99.90;;;;;;5011132;28;20191;-80
2022/10/14 05:49:55;;;;;;;10.23;9.20;;;15.30;99.90;;;;;;5012044;28;20838;-81
2022/10/14 05:52:21;;;;;;;10.67;9.47;;;14.60;99.90;;;;;;5023352;28;20689;-81
2022/10/14 05:54:46;;;;;;;10.93;9.20;;;14.90;99.90;;;;;;5010069;28;20225;-81
2022/10/14 05:57:12;;;;;;;9.53;8.50;;;15.00;99.90;;;;;;5007679;28;20190;-81
2022/10/14 05:59:37;;;;;;;10.43;9.20;;;15.30;99.90;;;;;;5032800;28;20576;-81
2022/10/14 06:02:03;;;;;;;10.47;9.10;;;14.40;99.90;;;;;;5018959;28;20217;-81
2022/10/14 06:04:28;;;;;;;10.50;9.50;;;14.80;99.90;;;;;;5017506;28;20193;-81
2022/10/14 06:06:54;;;;;;;10.67;9.57;;;17.20;99.90;;;;;;5031108;28;20655;-80
2022/10/14 06:09:19;;;;;;;12.23;9.60;;;14.70;99.90;;;;;;5018219;28;20701;-82
2022/10/14 06:11:45;;;;;;;11.23;9.60;;;15.30;99.90;;;;;;5016669;28;20286;-81
2022/10/14 06:14:11;;;;;;;9.37;8.40;;;15.30;99.90;;;;;;5016712;28;20193;-81
2022/10/14 06:16:36;;;;;;;10.77;9.67;;;14.50;99.90;;;;;;5018652;28;20179;-81
2022/10/14 06:19:02;;;;;;;10.70;9.53;;;15.90;99.90;;;;;;5011394;28;20853;-81
2022/10/14 06:21:28;;;;;;;11.43;9.43;;;15.30;99.90;;;;;;5021483;28;20209;-80
2022/10/14 06:23:53;;;;;;;10.23;9.23;;;15.40;99.90;;;;;;5030629;28;20195;-80
2022/10/14 06:26:19;;;;;;;11.30;10.17;;;15.40;99.90;;;;;;5018057;28;20179;-80
2022/10/14 06:28:45;;;;;;;11.40;9.13;;;15.10;99.90;;;;;;5004426;28;20286;-79
2022/10/14 06:31:11;;;;;;;13.47;9.90;;;14.90;99.90;;;;;;5010184;28;20207;-80
2022/10/14 06:33:36;;;;;;;13.93;9.27;;;15.10;99.90;;;;;;5010971;28;20424;-79
2022/10/14 06:36:04;;;;;;;12.73;10.57;;;15.10;99.90;;;;;;5010800;28;20693;-79
2022/10/14 06:38:29;;;;;;;12.90;11.10;;;15.00;99.90;;;;;;5008247;28;20205;-79
2022/10/14 06:40:55;;;;;;;11.07;9.53;;;15.40;99.90;;;;;;5010927;28;20222;-80
2022/10/14 06:43:21;;;;;;;11.63;10.17;;;15.30;99.90;;;;;;5008146;28;20656;-79
2022/10/14 06:45:47;;;;;;;15.15;12.23;;;15.80;99.90;;;;;;5009376;28;20536;-80
2022/10/14 06:48:13;;;;;;;10.10;9.10;;;15.60;99.90;;;;;;5010885;28;20190;-80
2022/10/14 06:50:38;;;;;;;13.43;9.77;;;15.30;99.90;;;;;;5010945;28;20465;-80
2022/10/14 06:53:04;;;;;;;10.70;9.20;;;15.30;99.90;;;;;;5009144;28;20205;-81
2022/10/14 06:55:29;;;;;;;12.83;9.20;;;15.40;99.90;;;;;;5009681;28;20182;-80
2022/10/14 06:57:55;;;;;;;11.70;9.50;;;16.10;99.90;;;;;;5008944;28;20672;-80
2022/10/14 07:00:21;;;;;;;9.57;8.57;;;15.70;99.90;;;;;;5011226;28;20183;-80
2022/10/14 07:02:46;;;;;;;13.37;9.43;;;15.40;99.90;;;;;;5008790;28;20240;-79
2022/10/14 07:05:18;;;;;;;11.02;9.93;;;16.00;99.90;;;;;;5067220;28;20541;-60
2022/10/14 07:07:44;;;;;;;9.33;7.80;;;15.50;99.90;;;;;;5047411;28;20684;-63
2022/10/14 07:10:09;;;;;;;13.73;8.10;;;15.50;99.90;;;;;;5047150;28;20239;-63
2022/10/14 07:12:35;;;;;;;11.13;9.07;;;15.70;99.90;;;;;;5038672;28;20186;-62
2022/10/14 07:15:01;;;;;;;12.00;7.60;;;15.40;99.90;;;;;;5060003;28;20296;-62
2022/10/14 07:17:26;;;;;;;13.25;9.00;;;15.50;99.90;;;;;;5037297;28;20654;-61
2022/10/14 07:19:52;;;;;;;9.23;8.33;;;15.50;99.90;;;;;;5052092;28;20242;-61
2022/10/14 07:22:18;;;;;;;12.63;8.83;;;15.80;99.90;;;;;;5034656;28;20193;-60
2022/10/14 07:24:43;;;;;;;13.07;8.73;;;15.60;99.90;;;;;;5057878;28;20212;-61
2022/10/14 07:27:09;;;;;;;9.63;8.63;;;15.60;99.90;;;;;;5047154;28;20186;-63
2022/10/14 07:29:35;;;;;;;8.93;8.13;;;15.60;99.90;;;;;;5066781;28;20189;-63
2022/10/14 07:32:01;;;;;;;11.17;8.97;;;15.60;99.90;;;;;;5066733;28;20189;-62
2022/10/14 07:34:27;;;;;;;10.82;8.93;;;15.70;99.90;;;;;;5045442;28;20245;-62
2022/10/14 07:36:53;;;;;;;9.40;8.37;;;15.80;99.90;;;;;;5053519;28;20213;-61
2022/10/14 07:39:18;;;;;;;9.00;8.10;;;15.90;99.90;;;;;;5060049;28;20556;-62
2022/10/14 07:41:44;;;;;;;8.73;7.53;;;16.20;99.90;;;;;;5049739;28;20274;-62
2022/10/14 07:44:12;;;;;;;10.50;8.03;;;16.40;99.90;;;;;;5047988;28;20294;-61
2022/10/14 07:46:41;;;;;;;11.90;8.27;;;16.50;99.90;;;;;;5046192;28;20261;-62
2022/10/14 07:49:13;;;;;;;9.07;8.18;;;16.40;99.90;;;;;;5038534;28;20323;-61
2022/10/14 07:51:39;;;;;;;8.82;7.45;;;16.40;99.90;;;;;;5042190;28;20246;-63
2022/10/14 07:54:10;;;;;;;7.78;6.85;;;16.60;99.90;;;;;;5053956;28;20193;-62
2022/10/14 07:56:38;;;;;;;8.73;6.70;;;16.30;99.90;;;;;;5050771;28;20194;-61
2022/10/14 07:59:04;;;;;;;9.57;6.63;;;16.70;99.90;;;;;;5035406;28;20177;-61
2022/10/14 08:01:30;;;;;;;7.72;6.93;;;16.50;99.90;;;;;;5046154;28;20194;-62
2022/10/14 08:03:55;;;;;;;8.87;6.83;;;16.50;99.90;;;;;;5046054;28;20225;-61
2022/10/14 08:06:21;;;;;;;7.80;6.80;;;16.40;99.90;;;;;;5041578;28;20438;-61
2022/10/14 08:08:47;;;;;;;10.20;6.43;;;16.70;99.90;;;;;;5040317;28;20213;-61
2022/10/14 08:11:22;;;;;;;8.40;6.90;;;16.70;99.90;;;;;;5029372;28;20187;-61
2022/10/14 08:13:48;;;;;;;9.15;6.60;;;16.50;99.90;;;;;;5036926;28;20540;-62
2022/10/14 08:16:29;;;;;;;8.40;6.40;;;16.70;99.90;;;;;;5034817;28;20281;-61
2022/10/14 08:18:56;;;;;;;7.00;6.30;;;16.90;99.90;;;;;;5019412;28;20212;-61
2022/10/14 08:21:23;;;;;;;7.88;6.45;;;16.80;99.90;;;;;;5019441;28;20733;-61
2022/10/14 08:23:49;;;;;;;8.93;6.72;;;16.90;99.90;;;;;;5032098;28;20726;-62
2022/10/14 08:26:30;;;;;;;7.10;6.40;;;16.80;99.90;;;;;;5023047;28;20417;-61
2022/10/14 08:28:57;;;;;;;8.48;6.25;;;17.00;99.90;;;;;;5028358;28;20785;-61
2022/10/14 08:31:22;;;;;;;6.30;5.70;;;16.90;99.90;;;;;;5032393;28;20277;-61
2022/10/14 08:33:48;;;;;;;6.37;5.63;;;17.00;99.90;;;;;;5034699;28;20770;-61
2022/10/14 08:36:15;;;;;;;5.90;5.40;;;17.00;99.90;;;;;;5036986;28;20189;-61
2022/10/14 08:38:41;;;;;;;6.10;5.55;;;17.00;99.90;;;;;;5036638;28;20240;-60
2022/10/14 08:41:37;;;;;;;6.43;5.83;;;16.90;99.90;;;;;;5031726;28;20270;-61
2022/10/14 08:44:21;;;;;;;7.65;5.97;;;17.10;99.90;;;;;;5031406;28;20225;-61
2022/10/14 08:47:02;;;;;;;5.65;5.15;;;16.70;99.90;;;;;;5032048;28;20201;-61
2022/10/14 08:49:45;;;;;;;6.53;5.00;;;17.00;99.90;;;;;;5028972;28;20183;-61
2022/10/14 08:52:17;;;;;;;5.15;4.72;;;17.20;99.90;;;;;;5033582;28;20718;-62
2022/10/14 08:54:54;;;;;;;6.57;5.68;;;17.00;99.90;;;;;;5023284;28;20206;-62
2022/10/14 08:57:23;;;;;;;6.22;5.68;;;17.30;99.90;;;;;;5021264;28;20218;-61
2022/10/14 08:59:48;;;;;;;5.43;4.80;;;17.20;99.90;;;;;;5019973;28;20655;-62
2022/10/14 09:02:31;;;;;;;5.30;4.63;;;17.30;99.90;;;;;;5022313;28;20182;-62
2022/10/14 09:04:58;;;;;;;7.05;3.92;;;17.70;99.90;;;;;;5021065;28;20756;-62
2022/10/14 09:07:24;;;;;;;6.78;5.20;;;17.70;99.90;;;;;;5031421;28;20666;-62
2022/10/14 09:09:59;;;;;;;5.90;4.13;;;17.70;99.90;;;;;;5018226;28;20272;-62
2022/10/14 09:12:29;;;;;;;5.80;4.65;;;18.00;99.90;;;;;;5026197;28;20441;-62
2022/10/14 09:15:06;;;;;;;5.38;4.80;;;18.20;99.90;;;;;;5024601;28;20301;-61
2022/10/14 09:17:40;;;;;;;4.80;4.28;;;18.10;99.90;;;;;;5016394;28;20199;-62
2022/10/14 09:20:21;;;;;;;9.60;4.32;;;18.30;99.90;;;;;;5011502;28;20194;-62
2022/10/14 09:23:18;;;;;;;4.30;3.90;;;18.40;99.90;;;;;;5020290;28;20186;-62
2022/10/14 09:25:52;;;;;;;6.32;4.35;;;18.50;99.90;;;;;;5021735;28;20275;-62
2022/10/14 09:28:18;;;;;;;6.22;5.20;;;18.50;99.90;;;;;;5022255;28;20552;-61
2022/10/14 09:30:44;;;;;;;4.63;4.10;;;18.60;99.90;;;;;;5044439;28;20189;-61
2022/10/14 09:33:19;;;;;;;4.47;4.00;;;18.70;99.90;;;;;;5038406;28;20210;-61
2022/10/14 09:35:45;;;;;;;4.30;3.90;;;18.60;99.90;;;;;;5033260;28;20530;-61
2022/10/14 09:38:12;;;;;;;6.10;4.55;;;18.70;99.90;;;;;;5050463;28;20263;-61
2022/10/14 09:40:44;;;;;;;5.15;3.92;;;18.70;99.90;;;;;;5038866;28;20185;-60
2022/10/14 09:43:09;;;;;;;4.63;3.88;;;19.10;99.90;;;;;;5028329;28;20209;-60
2022/10/14 09:45:56;;;;;;;3.70;3.40;;;18.90;99.90;;;;;;5039500;28;20669;-60
2022/10/14 09:48:50;;;;;;;4.40;4.00;;;18.90;99.90;;;;;;5047039;28;20258;-61
2022/10/14 09:51:45;;;;;;;7.70;5.15;;;19.00;99.90;;;;;;5023173;28;20462;-61
2022/10/14 09:54:22;;;;;;;4.30;4.00;;;19.20;99.90;;;;;;5029755;28;20684;-61
2022/10/14 09:56:48;;;;;;;6.18;4.10;;;19.10;99.90;;;;;;5032648;28;20635;-61
2022/10/14 09:59:19;;;;;;;10.05;4.25;;;19.20;99.90;;;;;;5021771;28;20247;-61
2022/10/14 10:01:50;;;;;;;4.38;3.08;;;19.10;99.90;;;;;;5048638;28;20191;-61
2022/10/14 10:04:31;;;;;;;5.45;3.55;;;19.20;99.90;;;;;;5036420;28;20648;-60
2022/10/14 10:06:58;;;;;;;5.35;3.95;;;19.20;99.90;;;;;;5018681;28;20260;-60
2022/10/14 10:09:24;;;;;;;5.15;3.90;;;19.20;99.90;;;;;;5032502;28;20218;-66
2022/10/14 10:11:50;;;;;;;4.68;4.07;;;19.30;99.90;;;;;;5042010;28;20209;-60
2022/10/14 10:14:31;;;;;;;6.43;4.00;;;19.50;99.90;;;;;;5025319;28;20240;-60
2022/10/14 10:17:06;;;;;;;5.38;3.78;;;19.60;99.90;;;;;;5030072;28;20436;-61
2022/10/14 10:19:34;;;;;;;6.18;4.30;;;19.60;99.90;;;;;;5048263;28;20614;-60
2022/10/14 10:22:18;;;;;;;5.20;3.95;;;19.70;99.90;;;;;;5032865;28;20604;-60
2022/10/14 10:24:49;;;;;;;4.85;4.45;;;19.70;99.90;;;;;;5018100;28;20297;-60
2022/10/14 10:27:35;;;;;;;4.97;3.85;;;19.70;99.90;;;;;;5033659;28;20560;-60
2022/10/14 10:30:16;;;;;;;8.75;4.75;;;19.70;99.90;;;;;;5049874;28;20220;-61
2022/10/14 10:33:00;;;;;;;4.47;3.80;;;19.90;99.90;;;;;;5050111;28;20671;-60
2022/10/14 10:35:53;;;;;;;4.30;4.00;;;20.00;99.90;;;;;;5049633;28;20264;-61
2022/10/14 10:38:33;;;;;;;3.75;3.45;;;19.90;99.90;;;;;;5033433;28;20224;-61
2022/10/14 10:41:23;;;;;;;5.57;4.25;;;19.90;99.90;;;;;;5023601;28;20674;-62
2022/10/14 10:44:12;;;;;;;3.85;3.50;;;20.00;99.90;;;;;;5035692;28;20222;-62
2022/10/14 10:47:02;;;;;;;4.13;3.17;;;20.10;99.90;;;;;;5031319;28;20667;-61
2022/10/14 10:49:55;;;;;;;5.22;3.58;;;20.00;99.90;;;;;;5049540;28;20261;-60
2022/10/14 10:52:59;;;;;;;3.88;3.47;;;19.80;99.90;;;;;;5020249;28;20615;-61
2022/10/14 10:55:34;;;;;;;5.53;3.22;;;19.70;99.90;;;;;;5029936;28;20226;-62
2022/10/14 10:58:13;;;;;;;4.50;3.80;;;19.70;99.90;;;;;;5026733;28;20545;-60
2022/10/14 11:01:15;;;;;;;5.10;4.60;;;20.20;99.90;;;;;;5030078;28;20182;-60
2022/10/14 11:03:53;;;;;;;4.65;3.55;;;20.10;99.90;;;;;;5030249;28;20221;-61
2022/10/14 11:12:01;;;;;;;6.97;4.05;;;19.90;99.90;;;;;;5032965;28;20177;-62
2022/10/14 11:12:11;;;;;;;3.67;3.38;;;19.80;99.90;;;;;;5042356;28;20189;-61
2022/10/14 11:14:51;;;;;;;3.38;3.17;;;19.60;99.90;;;;;;5025613;28;20233;-61
2022/10/14 11:17:21;;;;;;;4.03;3.60;;;19.40;99.90;;;;;;5042277;28;20185;-62
2022/10/14 11:20:15;;;;;;;4.68;3.78;;;19.30;99.90;;;;;;5037033;28;20238;-61
2022/10/14 11:22:47;;;;;;;4.20;3.70;;;19.20;99.90;;;;;;5019130;28;20604;-61
2022/10/14 11:25:48;;;;;;;4.45;3.55;;;19.10;99.90;;;;;;5029331;28;20250;-60
2022/10/14 11:28:37;;;;;;;4.95;3.47;;;18.90;99.90;;;;;;5024317;28;20607;-60
2022/10/14 11:31:27;;;;;;;4.82;3.97;;;18.80;99.90;;;;;;5027877;28;20200;-60
2022/10/14 11:34:02;;;;;;;4.00;3.47;;;18.90;99.90;;;;;;5025500;28;20202;-60
2022/10/14 11:37:01;;;;;;;4.50;3.70;;;18.80;99.90;;;;;;5027322;28;20261;-61
2022/10/14 11:39:43;;;;;;;4.60;4.18;;;18.80;99.90;;;;;;5024182;28;20198;-61
2022/10/14 11:42:30;;;;;;;4.50;3.60;;;18.80;99.90;;;;;;5031088;28;20186;-62
2022/10/14 11:45:17;;;;;;;4.80;3.55;;;18.80;99.90;;;;;;5028619;28;20214;-62
2022/10/14 11:47:46;;;;;;;5.57;4.28;;;18.80;99.90;;;;;;5028470;28;20320;-61
2022/10/14 11:50:20;;;;;;;4.70;3.78;;;19.00;99.90;;;;;;5027141;28;20174;-62
2022/10/14 11:53:00;;;;;;;4.10;3.70;;;19.00;99.90;;;;;;5031830;28;20765;-62
2022/10/14 11:55:31;;;;;;;4.78;4.30;;;19.20;99.90;;;;;;5029119;28;20229;-62
2022/10/14 11:58:05;;;;;;;3.58;3.28;;;19.30;99.90;;;;;;5020914;28;20237;-63
2022/10/14 12:00:33;;;;;;;4.40;4.00;;;19.70;99.90;;;;;;5033856;28;20194;-62
2022/10/14 12:03:18;;;;;;;4.43;3.75;;;19.50;99.90;;;;;;5033631;28;20186;-75
2022/10/14 12:06:16;;;;;;;5.72;3.80;;;19.70;99.90;;;;;;5029465;28;20663;-72
2022/10/14 12:08:46;;;;;;;4.47;3.40;;;19.90;99.90;;;;;;5040687;28;20643;-70
2022/10/14 12:11:26;;;;;;;4.57;3.83;;;19.90;99.90;;;;;;5036005;28;20200;-69
2022/10/14 12:13:59;;;;;;;5.03;3.50;;;19.80;99.90;;;;;;5031984;28;20671;-70
2022/10/14 12:16:25;;;;;;;4.13;3.60;;;19.90;99.90;;;;;;5031819;28;20550;-67
2022/10/14 12:18:56;;;;;;;3.50;2.87;;;19.90;99.90;;;;;;5033025;28;20324;-69
2022/10/14 12:21:46;;;;;;;3.40;3.10;;;20.20;99.90;;;;;;5036759;28;20194;-67
2022/10/14 12:24:22;;;;;;;3.63;2.80;;;19.80;99.90;;;;;;5029097;28;20228;-68
2022/10/14 12:26:57;;;;;;;3.53;3.22;;;20.00;99.90;;;;;;5035325;28;20252;-68
2022/10/14 12:29:24;;;;;;;3.70;2.85;;;20.10;99.90;;;;;;5032118;28;20583;-67
2022/10/14 12:32:19;;;;;;;3.25;3.00;;;20.00;99.90;;;;;;5031301;28;20178;-68
2022/10/14 12:34:47;;;;;;;3.28;2.55;;;20.20;99.90;;;;;;5025860;28;20272;-71
2022/10/14 12:37:33;;;;;;;3.75;3.00;;;20.30;99.90;;;;;;5041543;28;20251;-71
2022/10/14 12:40:05;;;;;;;3.42;2.40;;;20.30;99.90;;;;;;5027379;28;20285;-73
2022/10/14 12:42:43;;;;;;;2.60;2.40;;;20.70;99.90;;;;;;5029872;28;20224;-70
2022/10/14 12:45:34;;;;;;;3.08;2.40;;;20.50;99.90;;;;;;5029093;28;20217;-72
2022/10/14 12:48:13;;;;;;;2.55;2.30;;;20.40;99.90;;;;;;5030931;28;20204;-72
2022/10/14 12:50:41;;;;;;;2.70;2.50;;;20.30;99.90;;;;;;5038163;28;20272;-68
2022/10/14 12:53:25;;;;;;;3.55;2.55;;;20.40;99.90;;;;;;5017794;28;20202;-69
2022/10/14 12:55:59;;;;;;;3.25;2.40;;;20.30;99.90;;;;;;5024338;28;20181;-71
2022/10/14 12:58:27;;;;;;;4.50;2.50;;;20.30;99.90;;;;;;5018893;28;20218;-71
2022/10/14 13:01:05;;;;;;;2.53;2.33;;;20.20;99.90;;;;;;5035487;28;20287;-71
2022/10/14 13:03:41;;;;;;;3.08;2.40;;;20.20;99.90;;;;;;5036469;28;20730;-70
2022/10/14 13:06:30;;;;;;;2.60;2.40;;;20.20;99.90;;;;;;5024126;28;20209;-71
2022/10/14 13:09:10;;;;;;;4.45;3.40;;;20.20;99.90;;;;;;5015188;28;20195;-72